sensor_id;sensor_type;location;lat;lon;timestamp;pressure;altitude;pressure_sealevel;temperature;humidity
69239;BME280;56349;51.816;-0.026;2022-12-22T00:01:21;99713.77;;;20.73;36.88
69239;BME280;56349;51.816;-0.026;2022-12-22T00:03:47;99711.68;;;20.73;36.85
69239;BME280;56349;51.816;-0.026;2022-12-22T00:06:13;99716.20;;;20.67;36.92
69239;BME280;56349;51.816;-0.026;2022-12-22T00:08:39;99715.45;;;20.60;36.97
69239;BME280;56349;51.816;-0.026;2022-12-22T00:11:08;99714.05;;;20.27;37.03
69239;BME280;56349;51.816;-0.026;2022-12-22T00:13:35;99718.46;;;20.50;37.08
69239;BME280;56349;51.816;-0.026;2022-12-22T00:15:55;99725.92;;;20.46;37.11
69239;BME280;56349;51.816;-0.026;2022-12-22T00:18:21;99733.08;;;20.41;37.13
69239;BME280;56349;51.816;-0.026;2022-12-22T00:20:47;99727.58;;;20.34;37.19
69239;BME280;56349;51.816;-0.026;2022-12-22T00:23:13;99720.59;;;20.29;37.24
69239;BME280;56349;51.816;-0.026;2022-12-22T00:25:39;99720.04;;;20.24;37.29
69239;BME280;56349;51.816;-0.026;2022-12-22T00:28:12;99714.86;;;20.21;37.31
69239;BME280;56349;51.816;-0.026;2022-12-22T00:30:31;99708.45;;;20.65;37.31
69239;BME280;56349;51.816;-0.026;2022-12-22T00:32:57;99705.49;;;20.15;37.32
69239;BME280;56349;51.816;-0.026;2022-12-22T00:35:24;99705.44;;;20.57;37.35
69239;BME280;56349;51.816;-0.026;2022-12-22T00:37:47;99704.32;;;20.51;37.41
69239;BME280;56349;51.816;-0.026;2022-12-22T00:40:16;99704.18;;;20.24;37.45
69239;BME280;56349;51.816;-0.026;2022-12-22T00:42:39;99706.24;;;20.21;37.47
69239;BME280;56349;51.816;-0.026;2022-12-22T00:45:05;99707.00;;;20.41;37.47
69239;BME280;56349;51.816;-0.026;2022-12-22T00:47:30;99708.65;;;20.17;37.48
69239;BME280;56349;51.816;-0.026;2022-12-22T00:49:56;99709.39;;;20.13;37.51
69239;BME280;56349;51.816;-0.026;2022-12-22T00:52:23;99703.81;;;20.09;37.54
69239;BME280;56349;51.816;-0.026;2022-12-22T00:54:52;99701.84;;;20.28;37.56
69239;BME280;56349;51.816;-0.026;2022-12-22T00:57:16;99703.65;;;20.25;37.58
69239;BME280;56349;51.816;-0.026;2022-12-22T00:59:40;99699.19;;;20.23;37.58
69239;BME280;56349;51.816;-0.026;2022-12-22T01:02:05;99697.44;;;20.20;37.59
69239;BME280;56349;51.816;-0.026;2022-12-22T01:04:31;99702.72;;;20.18;37.60
69239;BME280;56349;51.816;-0.026;2022-12-22T01:06:57;99703.31;;;19.92;37.65
69239;BME280;56349;51.816;-0.026;2022-12-22T01:09:23;99702.86;;;20.10;37.68
69239;BME280;56349;51.816;-0.026;2022-12-22T01:11:49;99697.91;;;20.08;37.69
69239;BME280;56349;51.816;-0.026;2022-12-22T01:14:15;99694.24;;;20.08;37.66
69239;BME280;56349;51.816;-0.026;2022-12-22T01:16:40;99690.07;;;20.08;37.65
69239;BME280;56349;51.816;-0.026;2022-12-22T01:19:05;99690.82;;;19.64;37.62
69239;BME280;56349;51.816;-0.026;2022-12-22T01:21:31;99693.63;;;20.31;37.65
69239;BME280;56349;51.816;-0.026;2022-12-22T01:23:57;99696.58;;;19.99;37.69
69239;BME280;56349;51.816;-0.026;2022-12-22T01:26:23;99699.42;;;19.96;37.71
69239;BME280;56349;51.816;-0.026;2022-12-22T01:28:49;99699.26;;;19.69;37.74
69239;BME280;56349;51.816;-0.026;2022-12-22T01:31:17;99695.09;;;19.88;37.76
69239;BME280;56349;51.816;-0.026;2022-12-22T01:33:41;99691.34;;;19.85;37.78
69239;BME280;56349;51.816;-0.026;2022-12-22T01:36:07;99690.93;;;19.82;37.80
69239;BME280;56349;51.816;-0.026;2022-12-22T01:38:32;99695.03;;;19.78;37.84
69239;BME280;56349;51.816;-0.026;2022-12-22T01:40:59;99693.12;;;19.76;37.85
69239;BME280;56349;51.816;-0.026;2022-12-22T01:43:25;99688.08;;;19.72;37.88
69239;BME280;56349;51.816;-0.026;2022-12-22T01:45:49;99689.99;;;19.72;37.87
69239;BME280;56349;51.816;-0.026;2022-12-22T01:48:16;99695.03;;;19.50;37.84
69239;BME280;56349;51.816;-0.026;2022-12-22T01:50:42;99701.42;;;19.70;37.88
69239;BME280;56349;51.816;-0.026;2022-12-22T01:53:11;99699.32;;;19.68;37.91
69239;BME280;56349;51.816;-0.026;2022-12-22T01:55:32;99696.15;;;19.68;37.96
69239;BME280;56349;51.816;-0.026;2022-12-22T01:57:58;99698.03;;;19.69;38.17
69239;BME280;56349;51.816;-0.026;2022-12-22T02:00:25;99702.06;;;19.46;38.37
69239;BME280;56349;51.816;-0.026;2022-12-22T02:02:49;99713.23;;;19.68;38.52
69239;BME280;56349;51.816;-0.026;2022-12-22T02:05:16;99728.18;;;19.67;38.65
69239;BME280;56349;51.816;-0.026;2022-12-22T02:07:55;99734.91;;;19.66;38.65
69239;BME280;56349;51.816;-0.026;2022-12-22T02:10:18;99735.14;;;19.64;38.65
69239;BME280;56349;51.816;-0.026;2022-12-22T02:12:38;99736.29;;;19.63;38.64
69239;BME280;56349;51.816;-0.026;2022-12-22T02:15:02;99734.96;;;19.61;38.63
69239;BME280;56349;51.816;-0.026;2022-12-22T02:17:27;99728.52;;;19.60;38.61
69239;BME280;56349;51.816;-0.026;2022-12-22T02:20:03;99725.16;;;19.58;38.61
69239;BME280;56349;51.816;-0.026;2022-12-22T02:22:22;99724.78;;;19.56;38.61
69239;BME280;56349;51.816;-0.026;2022-12-22T02:24:46;99729.06;;;19.54;38.61
69239;BME280;56349;51.816;-0.026;2022-12-22T02:27:07;99730.73;;;19.78;38.61
69239;BME280;56349;51.816;-0.026;2022-12-22T02:29:35;99733.23;;;19.50;38.60
69239;BME280;56349;51.816;-0.026;2022-12-22T02:31:58;99724.73;;;19.49;38.58
69239;BME280;56349;51.816;-0.026;2022-12-22T02:34:23;99718.86;;;19.47;38.57
69239;BME280;56349;51.816;-0.026;2022-12-22T02:36:56;99717.97;;;19.46;38.56
69239;BME280;56349;51.816;-0.026;2022-12-22T02:39:18;99718.91;;;19.44;38.55
69239;BME280;56349;51.816;-0.026;2022-12-22T02:41:55;99715.81;;;19.41;38.53
69239;BME280;56349;51.816;-0.026;2022-12-22T02:44:18;99717.83;;;19.65;38.56
69239;BME280;56349;51.816;-0.026;2022-12-22T02:46:36;99718.84;;;19.35;38.57
69239;BME280;56349;51.816;-0.026;2022-12-22T02:48:59;99722.26;;;19.34;38.56
69239;BME280;56349;51.816;-0.026;2022-12-22T02:51:24;99727.57;;;19.35;38.52
69239;BME280;56349;51.816;-0.026;2022-12-22T02:53:47;99726.05;;;19.60;38.52
69239;BME280;56349;51.816;-0.026;2022-12-22T02:56:13;99726.70;;;19.30;38.53
69239;BME280;56349;51.816;-0.026;2022-12-22T02:58:38;99725.29;;;19.30;38.51
69239;BME280;56349;51.816;-0.026;2022-12-22T03:01:04;99732.55;;;19.54;38.52
69239;BME280;56349;51.816;-0.026;2022-12-22T03:03:29;99735.84;;;19.24;38.53
69239;BME280;56349;51.816;-0.026;2022-12-22T03:05:55;99746.46;;;19.21;38.56
69239;BME280;56349;51.816;-0.026;2022-12-22T03:08:21;99752.01;;;19.45;38.56
69239;BME280;56349;51.816;-0.026;2022-12-22T03:10:47;99753.84;;;19.43;38.56
69239;BME280;56349;51.816;-0.026;2022-12-22T03:13:13;99764.60;;;19.16;38.55
69239;BME280;56349;51.816;-0.026;2022-12-22T03:15:39;99769.00;;;19.42;38.53
69239;BME280;56349;51.816;-0.026;2022-12-22T03:18:08;99767.00;;;19.61;38.53
69239;BME280;56349;51.816;-0.026;2022-12-22T03:20:31;99763.05;;;19.11;38.53
69239;BME280;56349;51.816;-0.026;2022-12-22T03:22:57;99762.06;;;19.10;38.53
69239;BME280;56349;51.816;-0.026;2022-12-22T03:25:21;99759.78;;;19.10;38.51
69239;BME280;56349;51.816;-0.026;2022-12-22T03:27:48;99755.77;;;19.10;38.49
69239;BME280;56349;51.816;-0.026;2022-12-22T03:30:14;99759.51;;;19.08;38.48
69239;BME280;56349;51.816;-0.026;2022-12-22T03:32:39;99767.25;;;19.34;38.47
69239;BME280;56349;51.816;-0.026;2022-12-22T03:35:06;99772.89;;;19.32;38.47
69239;BME280;56349;51.816;-0.026;2022-12-22T03:37:30;99779.47;;;19.52;38.47
69239;BME280;56349;51.816;-0.026;2022-12-22T03:39:56;99786.88;;;19.48;38.51
69239;BME280;56349;51.816;-0.026;2022-12-22T03:42:22;99791.06;;;18.97;38.51
69239;BME280;56349;51.816;-0.026;2022-12-22T03:44:49;99798.99;;;18.95;38.51
69239;BME280;56349;51.816;-0.026;2022-12-22T03:47:15;99804.47;;;18.94;38.50
69239;BME280;56349;51.816;-0.026;2022-12-22T03:49:41;99813.46;;;19.19;38.49
69239;BME280;56349;51.816;-0.026;2022-12-22T03:52:08;99815.37;;;19.17;38.50
69239;BME280;56349;51.816;-0.026;2022-12-22T03:54:33;99817.46;;;19.39;38.48
69239;BME280;56349;51.816;-0.026;2022-12-22T03:56:59;99816.30;;;19.16;38.43
69239;BME280;56349;51.816;-0.026;2022-12-22T03:59:25;99817.74;;;19.38;38.46
69239;BME280;56349;51.816;-0.026;2022-12-22T04:01:52;99820.75;;;19.37;38.44
69239;BME280;56349;51.816;-0.026;2022-12-22T04:04:19;99828.15;;;19.14;38.43
69239;BME280;56349;51.816;-0.026;2022-12-22T04:06:42;99831.42;;;18.86;38.42
69239;BME280;56349;51.816;-0.026;2022-12-22T04:09:07;99833.60;;;19.32;38.43
69239;BME280;56349;51.816;-0.026;2022-12-22T04:11:32;99836.52;;;18.82;38.43
69239;BME280;56349;51.816;-0.026;2022-12-22T04:13:59;99835.27;;;19.30;38.40
69239;BME280;56349;51.816;-0.026;2022-12-22T04:16:24;99840.18;;;18.81;38.39
69239;BME280;56349;51.816;-0.026;2022-12-22T04:18:50;99847.41;;;19.05;38.41
69239;BME280;56349;51.816;-0.026;2022-12-22T04:21:15;99840.94;;;19.27;38.40
69239;BME280;56349;51.816;-0.026;2022-12-22T04:23:41;99829.48;;;18.99;38.41
69239;BME280;56349;51.816;-0.026;2022-12-22T04:26:07;99824.13;;;19.21;38.40
69239;BME280;56349;51.816;-0.026;2022-12-22T04:28:32;99819.52;;;19.18;38.43
69239;BME280;56349;51.816;-0.026;2022-12-22T04:30:58;99824.83;;;19.16;38.48
69239;BME280;56349;51.816;-0.026;2022-12-22T04:33:24;99829.85;;;19.17;38.54
69239;BME280;56349;51.816;-0.026;2022-12-22T04:35:49;99834.80;;;19.01;38.54
69239;BME280;56349;51.816;-0.026;2022-12-22T04:38:15;99834.97;;;19.31;38.49
69239;BME280;56349;51.816;-0.026;2022-12-22T04:40:42;99842.14;;;18.91;38.46
69239;BME280;56349;51.816;-0.026;2022-12-22T04:43:08;99848.03;;;19.03;38.37
69239;BME280;56349;51.816;-0.026;2022-12-22T04:45:32;99844.13;;;18.94;38.24
69239;BME280;56349;51.816;-0.026;2022-12-22T04:47:59;99829.77;;;19.32;38.09
69239;BME280;56349;51.816;-0.026;2022-12-22T04:50:25;99824.05;;;19.76;37.87
69239;BME280;56349;51.816;-0.026;2022-12-22T04:52:51;99821.61;;;19.63;37.64
69239;BME280;56349;51.816;-0.026;2022-12-22T04:55:17;99821.58;;;19.72;37.44
69239;BME280;56349;51.816;-0.026;2022-12-22T04:57:43;99819.97;;;19.56;37.28
69239;BME280;56349;51.816;-0.026;2022-12-22T05:00:10;99819.27;;;19.83;37.12
69239;BME280;56349;51.816;-0.026;2022-12-22T05:02:34;99827.58;;;19.84;37.01
69239;BME280;56349;51.816;-0.026;2022-12-22T05:05:00;99835.85;;;19.82;36.96
69239;BME280;56349;51.816;-0.026;2022-12-22T05:07:26;99836.23;;;19.80;36.97
69239;BME280;56349;51.816;-0.026;2022-12-22T05:09:52;99833.64;;;19.79;37.03
69239;BME280;56349;51.816;-0.026;2022-12-22T05:12:18;99838.40;;;19.76;37.15
69239;BME280;56349;51.816;-0.026;2022-12-22T05:14:44;99833.86;;;19.71;37.32
69239;BME280;56349;51.816;-0.026;2022-12-22T05:17:10;99837.53;;;19.65;37.53
69239;BME280;56349;51.816;-0.026;2022-12-22T05:19:35;99838.47;;;19.62;37.70
69239;BME280;56349;51.816;-0.026;2022-12-22T05:22:01;99836.77;;;19.36;37.85
69239;BME280;56349;51.816;-0.026;2022-12-22T05:24:27;99831.81;;;19.56;37.99
69239;BME280;56349;51.816;-0.026;2022-12-22T05:26:53;99827.82;;;19.81;38.16
69239;BME280;56349;51.816;-0.026;2022-12-22T05:29:19;99831.70;;;19.81;38.31
69239;BME280;56349;51.816;-0.026;2022-12-22T05:31:46;99835.38;;;19.55;38.47
69239;BME280;56349;51.816;-0.026;2022-12-22T05:34:10;99826.83;;;19.57;38.58
69239;BME280;56349;51.816;-0.026;2022-12-22T05:36:37;99825.80;;;19.60;38.68
69239;BME280;56349;51.816;-0.026;2022-12-22T05:39:03;99829.88;;;19.62;38.76
69239;BME280;56349;51.816;-0.026;2022-12-22T05:41:29;99831.46;;;19.43;38.85
69239;BME280;56349;51.816;-0.026;2022-12-22T05:43:55;99834.08;;;19.69;38.92
69239;BME280;56349;51.816;-0.026;2022-12-22T05:46:21;99840.00;;;19.73;38.99
69239;BME280;56349;51.816;-0.026;2022-12-22T05:48:51;99839.46;;;20.02;39.08
69239;BME280;56349;51.816;-0.026;2022-12-22T05:51:11;99842.73;;;19.78;39.14
69239;BME280;56349;51.816;-0.026;2022-12-22T05:53:38;99838.62;;;19.83;39.19
69239;BME280;56349;51.816;-0.026;2022-12-22T05:56:05;99838.57;;;19.67;39.21
69239;BME280;56349;51.816;-0.026;2022-12-22T05:58:29;99839.18;;;19.73;39.25
69239;BME280;56349;51.816;-0.026;2022-12-22T06:00:56;99842.71;;;20.00;39.26
69239;BME280;56349;51.816;-0.026;2022-12-22T06:03:21;99838.68;;;20.05;39.31
69239;BME280;56349;51.816;-0.026;2022-12-22T06:05:48;99838.56;;;19.85;39.36
69239;BME280;56349;51.816;-0.026;2022-12-22T06:08:13;99839.11;;;19.67;39.39
69239;BME280;56349;51.816;-0.026;2022-12-22T06:10:38;99840.48;;;20.16;39.41
69239;BME280;56349;51.816;-0.026;2022-12-22T06:13:04;99847.57;;;19.98;39.42
69239;BME280;56349;51.816;-0.026;2022-12-22T06:15:30;99852.84;;;20.03;39.43
69239;BME280;56349;51.816;-0.026;2022-12-22T06:17:56;99852.26;;;20.07;39.43
69239;BME280;56349;51.816;-0.026;2022-12-22T06:20:22;99845.21;;;20.11;39.43
69239;BME280;56349;51.816;-0.026;2022-12-22T06:22:52;99842.49;;;20.21;39.37
69239;BME280;56349;51.816;-0.026;2022-12-22T06:25:13;99845.61;;;20.01;39.38
69239;BME280;56349;51.816;-0.026;2022-12-22T06:27:39;99845.05;;;20.05;39.35
69239;BME280;56349;51.816;-0.026;2022-12-22T06:30:06;99844.96;;;20.08;39.30
69239;BME280;56349;51.816;-0.026;2022-12-22T06:32:34;99844.04;;;20.33;39.22
69239;BME280;56349;51.816;-0.026;2022-12-22T06:34:57;99836.56;;;20.58;39.16
69239;BME280;56349;51.816;-0.026;2022-12-22T06:37:23;99831.20;;;20.37;39.07
69239;BME280;56349;51.816;-0.026;2022-12-22T06:39:49;99828.48;;;20.14;39.01
69239;BME280;56349;51.816;-0.026;2022-12-22T06:42:15;99836.49;;;20.16;38.92
69239;BME280;56349;51.816;-0.026;2022-12-22T06:44:41;99844.60;;;20.64;38.82
69239;BME280;56349;51.816;-0.026;2022-12-22T06:47:07;99850.62;;;20.44;38.72
69239;BME280;56349;51.816;-0.026;2022-12-22T06:49:33;99857.86;;;20.44;38.63
69239;BME280;56349;51.816;-0.026;2022-12-22T06:51:59;99861.52;;;20.67;38.53
69239;BME280;56349;51.816;-0.026;2022-12-22T06:54:25;99865.56;;;20.44;38.45
69239;BME280;56349;51.816;-0.026;2022-12-22T06:56:51;99866.59;;;20.19;38.38
69239;BME280;56349;51.816;-0.026;2022-12-22T06:59:17;99869.42;;;20.39;38.33
69239;BME280;56349;51.816;-0.026;2022-12-22T07:01:43;99865.77;;;20.37;38.27
69239;BME280;56349;51.816;-0.026;2022-12-22T07:04:09;99860.15;;;20.59;38.19
69239;BME280;56349;51.816;-0.026;2022-12-22T07:06:34;99857.36;;;20.13;38.13
69239;BME280;56349;51.816;-0.026;2022-12-22T07:08:59;99859.17;;;20.12;38.06
69239;BME280;56349;51.816;-0.026;2022-12-22T07:11:25;99861.69;;;20.12;37.98
69239;BME280;56349;51.816;-0.026;2022-12-22T07:13:51;99869.00;;;20.34;37.93
69239;BME280;56349;51.816;-0.026;2022-12-22T07:16:17;99877.33;;;20.54;37.87
69239;BME280;56349;51.816;-0.026;2022-12-22T07:18:44;99870.91;;;20.07;37.83
69239;BME280;56349;51.816;-0.026;2022-12-22T07:21:11;99865.28;;;20.06;37.78
69239;BME280;56349;51.816;-0.026;2022-12-22T07:23:35;99856.18;;;20.25;37.74
69239;BME280;56349;51.816;-0.026;2022-12-22T07:26:00;99857.85;;;20.24;37.70
69239;BME280;56349;51.816;-0.026;2022-12-22T07:28:26;99865.73;;;20.20;37.68
69239;BME280;56349;51.816;-0.026;2022-12-22T07:30:51;99868.27;;;19.96;37.66
69239;BME280;56349;51.816;-0.026;2022-12-22T07:33:17;99871.69;;;19.94;37.62
69239;BME280;56349;51.816;-0.026;2022-12-22T07:35:42;99867.65;;;19.91;37.58
69239;BME280;56349;51.816;-0.026;2022-12-22T07:38:13;99874.27;;;19.89;37.56
69239;BME280;56349;51.816;-0.026;2022-12-22T07:40:34;99871.59;;;20.30;37.55
69239;BME280;56349;51.816;-0.026;2022-12-22T07:43:00;99874.06;;;20.05;37.54
69239;BME280;56349;51.816;-0.026;2022-12-22T07:45:27;99876.32;;;20.02;37.52
69239;BME280;56349;51.816;-0.026;2022-12-22T07:47:57;99876.31;;;20.20;37.53
69239;BME280;56349;51.816;-0.026;2022-12-22T07:50:19;99874.05;;;20.17;37.51
69239;BME280;56349;51.816;-0.026;2022-12-22T07:52:42;99870.44;;;19.93;37.48
69239;BME280;56349;51.816;-0.026;2022-12-22T07:55:08;99867.24;;;19.90;37.47
69239;BME280;56349;51.816;-0.026;2022-12-22T07:57:35;99866.25;;;20.10;37.45
69239;BME280;56349;51.816;-0.026;2022-12-22T08:00:01;99856.98;;;19.86;37.43
69239;BME280;56349;51.816;-0.026;2022-12-22T08:02:27;99856.25;;;20.06;37.43
69239;BME280;56349;51.816;-0.026;2022-12-22T08:04:51;99858.57;;;19.82;37.40
69239;BME280;56349;51.816;-0.026;2022-12-22T08:07:18;99858.99;;;19.58;37.36
69239;BME280;56349;51.816;-0.026;2022-12-22T08:09:44;99861.50;;;20.01;37.34
69239;BME280;56349;51.816;-0.026;2022-12-22T08:12:09;99861.00;;;20.25;37.32
69239;BME280;56349;51.816;-0.026;2022-12-22T08:14:35;99862.70;;;19.74;37.30
69239;BME280;56349;51.816;-0.026;2022-12-22T08:17:01;99859.45;;;19.70;37.33
69239;BME280;56349;51.816;-0.026;2022-12-22T08:19:26;99858.26;;;19.91;37.29
69239;BME280;56349;51.816;-0.026;2022-12-22T08:21:51;99856.83;;;19.43;37.28
69239;BME280;56349;51.816;-0.026;2022-12-22T08:24:17;99852.69;;;19.87;37.33
69239;BME280;56349;51.816;-0.026;2022-12-22T08:26:45;99843.12;;;19.65;37.56
69239;BME280;56349;51.816;-0.026;2022-12-22T08:29:13;99836.57;;;19.88;37.92
69239;BME280;56349;51.816;-0.026;2022-12-22T08:31:36;99841.06;;;19.94;38.28
69239;BME280;56349;51.816;-0.026;2022-12-22T08:34:03;99849.67;;;20.03;38.65
69239;BME280;56349;51.816;-0.026;2022-12-22T08:36:28;99856.61;;;19.91;38.68
69239;BME280;56349;51.816;-0.026;2022-12-22T08:38:54;99854.52;;;20.30;38.66
69239;BME280;56349;51.816;-0.026;2022-12-22T08:41:18;99853.02;;;20.06;38.58
69239;BME280;56349;51.816;-0.026;2022-12-22T08:43:44;99850.25;;;20.28;38.41
69239;BME280;56349;51.816;-0.026;2022-12-22T08:46:10;99846.75;;;20.50;38.24
69239;BME280;56349;51.816;-0.026;2022-12-22T08:48:36;99839.29;;;20.71;38.09
69239;BME280;56349;51.816;-0.026;2022-12-22T08:51:02;99840.56;;;20.93;37.88
69239;BME280;56349;51.816;-0.026;2022-12-22T08:53:28;99841.75;;;20.85;37.63
69239;BME280;56349;51.816;-0.026;2022-12-22T08:55:55;99843.39;;;21.02;37.41
69239;BME280;56349;51.816;-0.026;2022-12-22T08:58:21;99845.20;;;21.20;37.19
69239;BME280;56349;51.816;-0.026;2022-12-22T09:00:46;99847.69;;;21.36;36.96
69239;BME280;56349;51.816;-0.026;2022-12-22T09:03:12;99846.02;;;21.31;36.73
69239;BME280;56349;51.816;-0.026;2022-12-22T09:05:38;99841.25;;;21.49;36.47
69239;BME280;56349;51.816;-0.026;2022-12-22T09:08:04;99842.40;;;21.64;36.25
69239;BME280;56349;51.816;-0.026;2022-12-22T09:10:29;99843.21;;;21.56;36.05
69239;BME280;56349;51.816;-0.026;2022-12-22T09:12:54;99841.41;;;22.11;35.89
69239;BME280;56349;51.816;-0.026;2022-12-22T09:15:20;99835.39;;;21.99;35.74
69239;BME280;56349;51.816;-0.026;2022-12-22T09:17:46;99834.64;;;22.09;35.59
69239;BME280;56349;51.816;-0.026;2022-12-22T09:20:13;99831.01;;;22.19;35.45
69239;BME280;56349;51.816;-0.026;2022-12-22T09:22:38;99827.49;;;22.27;35.32
69239;BME280;56349;51.816;-0.026;2022-12-22T09:25:05;99827.49;;;22.13;35.22
69239;BME280;56349;51.816;-0.026;2022-12-22T09:27:29;99822.76;;;21.94;35.12
69239;BME280;56349;51.816;-0.026;2022-12-22T09:29:59;99823.49;;;22.01;35.05
69239;BME280;56349;51.816;-0.026;2022-12-22T09:32:20;99824.18;;;22.57;34.91
69239;BME280;56349;51.816;-0.026;2022-12-22T09:34:46;99822.54;;;22.19;34.66
69239;BME280;56349;51.816;-0.026;2022-12-22T09:37:13;99825.17;;;22.29;34.44
69239;BME280;56349;51.816;-0.026;2022-12-22T09:39:38;99820.11;;;22.36;34.23
69239;BME280;56349;51.816;-0.026;2022-12-22T09:42:10;99817.89;;;22.43;34.04
69239;BME280;56349;51.816;-0.026;2022-12-22T09:44:33;99810.47;;;22.50;33.88
69239;BME280;56349;51.816;-0.026;2022-12-22T09:46:58;99808.98;;;22.35;33.70
69239;BME280;56349;51.816;-0.026;2022-12-22T09:49:22;99803.35;;;22.63;33.53
69239;BME280;56349;51.816;-0.026;2022-12-22T09:51:52;99797.25;;;22.44;33.37
69239;BME280;56349;51.816;-0.026;2022-12-22T09:54:14;99791.48;;;22.70;33.26
69239;BME280;56349;51.816;-0.026;2022-12-22T09:56:39;99786.25;;;22.75;33.14
69239;BME280;56349;51.816;-0.026;2022-12-22T09:59:08;99781.66;;;22.77;33.00
69239;BME280;56349;51.816;-0.026;2022-12-22T10:01:38;99774.25;;;22.74;32.92
69239;BME280;56349;51.816;-0.026;2022-12-22T10:04:01;99772.03;;;22.73;32.87
69239;BME280;56349;51.816;-0.026;2022-12-22T10:06:28;99770.12;;;22.74;33.04
69239;BME280;56349;51.816;-0.026;2022-12-22T10:08:46;99765.45;;;22.75;33.17
69239;BME280;56349;51.816;-0.026;2022-12-22T10:11:15;99762.59;;;23.05;33.18
69239;BME280;56349;51.816;-0.026;2022-12-22T10:13:38;99759.67;;;22.61;33.19
69239;BME280;56349;51.816;-0.026;2022-12-22T10:18:29;99756.46;;;22.67;33.22
69239;BME280;56349;51.816;-0.026;2022-12-22T10:23:23;99753.00;;;22.92;33.20
69239;BME280;56349;51.816;-0.026;2022-12-22T10:28:15;99757.82;;;22.99;33.16
69239;BME280;56349;51.816;-0.026;2022-12-22T10:30:38;99753.15;;;23.01;33.10
69239;BME280;56349;51.816;-0.026;2022-12-22T10:33:06;99751.56;;;23.02;33.08
69239;BME280;56349;51.816;-0.026;2022-12-22T10:37:54;99742.48;;;22.82;33.05
69239;BME280;56349;51.816;-0.026;2022-12-22T10:40:21;99739.63;;;23.07;33.01
69239;BME280;56349;51.816;-0.026;2022-12-22T10:42:47;99732.94;;;23.08;32.97
69239;BME280;56349;51.816;-0.026;2022-12-22T10:45:17;99726.72;;;22.87;32.95
69239;BME280;56349;51.816;-0.026;2022-12-22T10:47:36;99728.47;;;22.90;32.96
69239;BME280;56349;51.816;-0.026;2022-12-22T10:50:03;99730.75;;;23.13;32.99
69239;BME280;56349;51.816;-0.026;2022-12-22T10:52:29;99726.98;;;23.16;32.99
69239;BME280;56349;51.816;-0.026;2022-12-22T10:57:27;99721.13;;;23.26;32.96
69239;BME280;56349;51.816;-0.026;2022-12-22T10:59:51;99717.89;;;23.06;32.96
69239;BME280;56349;51.816;-0.026;2022-12-22T11:04:36;99711.28;;;23.02;32.65
69239;BME280;56349;51.816;-0.026;2022-12-22T11:07:07;99712.62;;;23.25;32.56
69239;BME280;56349;51.816;-0.026;2022-12-22T11:09:27;99713.44;;;23.04;32.61
69239;BME280;56349;51.816;-0.026;2022-12-22T11:11:57;99711.48;;;22.81;32.63
69239;BME280;56349;51.816;-0.026;2022-12-22T11:14:26;99709.39;;;23.10;32.75
69239;BME280;56349;51.816;-0.026;2022-12-22T11:16:48;99704.64;;;23.13;32.82
69239;BME280;56349;51.816;-0.026;2022-12-22T11:21:41;99692.36;;;23.20;32.71
69239;BME280;56349;51.816;-0.026;2022-12-22T11:24:09;99683.61;;;23.19;32.62
69239;BME280;56349;51.816;-0.026;2022-12-22T11:26:34;99676.95;;;23.20;32.55
69239;BME280;56349;51.816;-0.026;2022-12-22T11:29:04;99674.34;;;23.19;32.52
69239;BME280;56349;51.816;-0.026;2022-12-22T11:31:31;99670.41;;;23.16;32.56
69239;BME280;56349;51.816;-0.026;2022-12-22T11:33:52;99667.63;;;23.37;32.54
69239;BME280;56349;51.816;-0.026;2022-12-22T11:36:16;99664.96;;;23.15;32.50
69239;BME280;56349;51.816;-0.026;2022-12-22T11:38:46;99659.90;;;23.36;32.50
69239;BME280;56349;51.816;-0.026;2022-12-22T11:41:05;99655.49;;;23.13;32.50
69239;BME280;56349;51.816;-0.026;2022-12-22T11:43:33;99649.74;;;23.12;32.48
69239;BME280;56349;51.816;-0.026;2022-12-22T11:46:01;99649.49;;;23.10;32.49
69239;BME280;56349;51.816;-0.026;2022-12-22T11:48:25;99650.35;;;22.82;32.45
69239;BME280;56349;51.816;-0.026;2022-12-22T11:50:44;99649.14;;;22.78;32.46
69239;BME280;56349;51.816;-0.026;2022-12-22T11:53:23;99653.91;;;23.03;32.44
69239;BME280;56349;51.816;-0.026;2022-12-22T11:55:35;99654.95;;;23.21;32.49
69239;BME280;56349;51.816;-0.026;2022-12-22T12:00:24;99652.49;;;22.92;32.48
69239;BME280;56349;51.816;-0.026;2022-12-22T12:03:02;99646.03;;;22.89;32.46
69239;BME280;56349;51.816;-0.026;2022-12-22T12:07:45;99637.19;;;23.06;32.41
69239;BME280;56349;51.816;-0.026;2022-12-22T12:10:14;99631.15;;;23.04;32.37
69239;BME280;56349;51.816;-0.026;2022-12-22T12:12:40;99626.34;;;23.03;32.33
69239;BME280;56349;51.816;-0.026;2022-12-22T12:15:07;99624.40;;;23.00;32.30
69239;BME280;56349;51.816;-0.026;2022-12-22T12:17:32;99617.48;;;22.75;32.29
69239;BME280;56349;51.816;-0.026;2022-12-22T12:20:00;99614.72;;;22.73;32.24
69239;BME280;56349;51.816;-0.026;2022-12-22T12:22:22;99613.32;;;22.92;32.24
69239;BME280;56349;51.816;-0.026;2022-12-22T12:24:50;99610.07;;;22.68;32.21
69239;BME280;56349;51.816;-0.026;2022-12-22T12:27:10;99603.30;;;22.67;32.18
69239;BME280;56349;51.816;-0.026;2022-12-22T12:29:36;99602.81;;;22.88;32.16
69239;BME280;56349;51.816;-0.026;2022-12-22T12:32:00;99602.55;;;22.64;32.13
69239;BME280;56349;51.816;-0.026;2022-12-22T12:34:23;99594.59;;;22.62;32.13
69239;BME280;56349;51.816;-0.026;2022-12-22T12:36:52;99592.45;;;22.83;32.09
69239;BME280;56349;51.816;-0.026;2022-12-22T12:39:19;99591.68;;;22.80;32.07
69239;BME280;56349;51.816;-0.026;2022-12-22T12:41:46;99592.95;;;22.79;32.05
69239;BME280;56349;51.816;-0.026;2022-12-22T12:44:10;99590.91;;;22.76;32.04
69239;BME280;56349;51.816;-0.026;2022-12-22T12:48:57;99582.17;;;22.71;32.01
69239;BME280;56349;51.816;-0.026;2022-12-22T12:56:12;99573.85;;;22.68;31.94
69239;BME280;56349;51.816;-0.026;2022-12-22T13:01:05;99571.45;;;22.66;31.82
69239;BME280;56349;51.816;-0.026;2022-12-22T13:03:35;99574.98;;;22.64;31.81
69239;BME280;56349;51.816;-0.026;2022-12-22T13:05:57;99573.33;;;22.65;31.87
69239;BME280;56349;51.816;-0.026;2022-12-22T13:08:22;99569.62;;;22.64;31.95
69239;BME280;56349;51.816;-0.026;2022-12-22T13:15:40;99563.41;;;22.63;32.36
69239;BME280;56349;51.816;-0.026;2022-12-22T13:18:09;99562.96;;;22.46;32.46